createdAt,value
2022-08-12T00:02:03.737Z,19.80
2022-08-12T00:04:52.608Z,19.80
2022-08-12T00:07:39.383Z,20.00
2022-08-12T00:10:26.281Z,20.00
2022-08-12T00:13:14.177Z,20.20
2022-08-12T00:16:04.317Z,20.30
2022-08-12T00:18:50.170Z,20.30
2022-08-12T00:21:39.836Z,20.30
2022-08-12T00:24:27.711Z,20.30
2022-08-12T00:27:15.751Z,20.10
2022-08-12T00:30:03.203Z,19.90
2022-08-12T00:32:54.650Z,19.90
2022-08-12T00:35:44.556Z,19.60
2022-08-12T00:38:30.775Z,19.70
2022-08-12T00:41:18.832Z,19.50
2022-08-12T00:43:48.735Z,19.50
2022-08-12T00:46:36.838Z,19.80
2022-08-12T00:49:05.026Z,19.90
2022-08-12T00:51:54.365Z,20.00
2022-08-12T00:54:23.359Z,20.10
2022-08-12T00:56:54.660Z,20.10
2022-08-12T00:59:22.292Z,20.10
2022-08-12T01:02:02.459Z,20.10
2022-08-12T01:04:59.674Z,20.00
2022-08-12T01:07:47.552Z,20.00
2022-08-12T01:10:33.784Z,19.70
2022-08-12T01:13:18.564Z,19.80
2022-08-12T01:15:50.894Z,19.80
2022-08-12T01:18:21.447Z,19.70
2022-08-12T01:21:09.729Z,19.70
2022-08-12T01:24:31.971Z,19.50
2022-08-12T01:27:02.752Z,19.40
2022-08-12T01:29:34.803Z,19.40
2022-08-12T01:32:08.899Z,19.60
2022-08-12T01:34:39.102Z,19.50
2022-08-12T01:37:09.351Z,19.20
2022-08-12T01:40:33.605Z,19.10
2022-08-12T01:42:42.236Z,19.10
2022-08-12T01:45:12.701Z,19.20
2022-08-12T01:47:54.895Z,19.00
2022-08-12T01:50:32.086Z,18.80
2022-08-12T01:53:12.214Z,19.00
2022-08-12T01:55:45.505Z,19.10
2022-08-12T02:02:37.148Z,18.90
2022-08-12T02:16:12.164Z,18.60
2022-08-12T02:28:18.355Z,18.90
2022-08-12T02:30:45.855Z,18.70
2022-08-12T02:33:13.843Z,18.60
2022-08-12T02:35:41.165Z,18.50
2022-08-12T02:38:10.832Z,18.70
2022-08-12T02:40:40.632Z,18.50
2022-08-12T02:46:31.404Z,18.70
2022-08-12T02:56:03.224Z,18.30
2022-08-12T02:58:41.333Z,18.30
2022-08-12T03:08:12.173Z,18.30
2022-08-12T05:08:26.917Z,18.30
2022-08-12T05:14:18.371Z,18.70
2022-08-12T05:16:45.950Z,18.80
2022-08-12T05:19:18.665Z,18.60
2022-08-12T05:21:49.907Z,18.90
2022-08-12T05:24:17.109Z,19.00
2022-08-12T05:26:44.577Z,19.00
2022-08-12T05:30:08.197Z,19.10
2022-08-12T05:32:01.640Z,19.10
2022-08-12T05:34:30.865Z,19.30
2022-08-12T05:36:59.062Z,19.40
2022-08-12T05:39:26.491Z,19.60
2022-08-12T05:41:53.890Z,19.70
2022-08-12T05:44:21.396Z,19.90
2022-08-12T05:46:48.704Z,19.90
2022-08-12T05:49:16.613Z,20.00
2022-08-12T05:51:44.002Z,20.00
2022-08-12T05:54:12.284Z,20.30
2022-08-12T05:56:41.878Z,20.30
2022-08-12T05:59:11.551Z,20.40
2022-08-12T06:02:09.493Z,20.70
2022-08-12T06:04:28.111Z,21.00
2022-08-12T06:06:55.421Z,21.20
2022-08-12T06:09:25.930Z,21.10
2022-08-12T06:12:04.883Z,21.40
2022-08-12T06:14:35.554Z,21.60
2022-08-12T06:17:04.676Z,21.80
2022-08-12T06:20:27.658Z,22.00
2022-08-12T06:22:19.371Z,22.10
2022-08-12T06:24:48.686Z,22.20
2022-08-12T06:27:18.668Z,22.20
2022-08-12T06:30:10.147Z,22.40
2022-08-12T06:32:34.437Z,22.30
2022-08-12T06:35:24.995Z,22.40
2022-08-12T06:37:57.148Z,22.60
2022-08-12T06:40:43.950Z,22.70
2022-08-12T06:43:13.432Z,22.70
2022-08-12T06:45:49.870Z,22.80
2022-08-12T06:48:17.644Z,22.80
2022-08-12T06:50:45.409Z,23.00
2022-08-12T06:53:13.159Z,23.20
2022-08-12T06:55:58.106Z,23.20
2022-08-12T06:58:30.107Z,23.40
2022-08-12T07:00:59.642Z,23.60
2022-08-12T07:03:28.960Z,23.70
2022-08-12T07:06:01.498Z,23.90
2022-08-12T07:08:31.117Z,24.00
2022-08-12T07:11:00.775Z,24.00
2022-08-12T07:14:11.763Z,23.80
2022-08-12T07:16:46.021Z,24.10
2022-08-12T07:19:13.472Z,24.10
2022-08-12T07:21:59.972Z,24.10
2022-08-12T07:24:29.959Z,24.20
2022-08-12T07:26:57.670Z,24.40
2022-08-12T07:29:59.439Z,24.50
2022-08-12T07:32:13.630Z,24.70
2022-08-12T07:34:42.597Z,24.70
2022-08-12T07:37:09.956Z,24.70
2022-08-12T07:39:37.468Z,24.80
2022-08-12T07:42:18.783Z,25.00
2022-08-12T07:44:47.468Z,25.00
2022-08-12T07:47:19.075Z,24.90
2022-08-12T07:50:03.426Z,25.00
2022-08-12T07:52:38.903Z,25.00
2022-08-12T07:55:07.088Z,25.20
2022-08-12T07:57:35.279Z,25.20
2022-08-12T08:00:06.334Z,25.50
2022-08-12T08:02:37.788Z,25.30
2022-08-12T08:05:06.215Z,25.30
2022-08-12T08:07:33.753Z,25.50
2022-08-12T08:10:05.283Z,25.50
2022-08-12T08:12:50.934Z,25.20
2022-08-12T08:15:18.294Z,25.40
2022-08-12T08:17:58.135Z,25.60
2022-08-12T08:20:30.674Z,25.50
2022-08-12T08:22:59.897Z,25.60
2022-08-12T08:25:36.434Z,25.70
2022-08-12T08:28:17.463Z,25.70
2022-08-12T08:30:50.410Z,25.80
2022-08-12T08:34:01.564Z,25.90
2022-08-12T08:36:16.145Z,26.00
2022-08-12T08:38:53.276Z,26.00
2022-08-12T08:42:16.662Z,26.00
2022-08-12T08:44:38.970Z,26.20
2022-08-12T08:47:07.653Z,26.20
2022-08-12T08:49:38.439Z,26.30
2022-08-12T08:52:07.428Z,26.20
2022-08-12T08:54:34.956Z,26.30
2022-08-12T08:57:03.298Z,26.50
2022-08-12T08:59:30.907Z,26.60
2022-08-12T09:01:59.808Z,26.60
2022-08-12T09:05:11.866Z,26.70
2022-08-12T09:07:51.101Z,26.50
2022-08-12T09:15:59.893Z,26.70
2022-08-12T09:18:33.118Z,26.30
2022-08-12T09:30:11.581Z,26.40
2022-08-12T09:32:57.018Z,26.60
2022-08-12T09:35:01.462Z,26.70
2022-08-12T09:37:58.433Z,26.80
2022-08-12T09:41:02.186Z,26.70
2022-08-12T09:43:25.593Z,26.70
2022-08-12T09:46:11.147Z,26.80
2022-08-12T09:48:55.947Z,26.90
2022-08-12T09:51:24.685Z,26.90
2022-08-12T09:54:31.131Z,26.80
2022-08-12T09:57:02.214Z,26.70
2022-08-12T10:00:15.435Z,26.60
2022-08-12T10:02:49.593Z,26.70
2022-08-12T10:05:13.297Z,26.80
2022-08-12T10:07:44.889Z,26.70
2022-08-12T10:10:22.783Z,26.70
2022-08-12T10:13:34.911Z,26.70
2022-08-12T10:16:06.617Z,26.80
2022-08-12T10:18:51.862Z,26.80
2022-08-12T10:21:41.619Z,26.50
2022-08-12T10:24:20.250Z,26.70
2022-08-12T10:27:06.481Z,26.40
2022-08-12T10:30:40.711Z,26.40
2022-08-12T10:32:44.217Z,26.50
2022-08-12T10:35:15.856Z,26.70
2022-08-12T10:38:34.246Z,26.80
2022-08-12T10:40:34.019Z,26.70
2022-08-12T10:43:23.551Z,26.80
2022-08-12T10:45:58.248Z,26.80
2022-08-12T10:48:34.138Z,27.20
2022-08-12T10:52:04.708Z,27.30
2022-08-12T10:54:00.993Z,27.40
2022-08-12T10:56:35.443Z,27.20
2022-08-12T10:59:10.565Z,26.90
2022-08-12T11:04:17.793Z,26.90
2022-08-12T11:04:45.608Z,27.00
2022-08-12T11:08:36.480Z,26.70
2022-08-12T11:10:05.737Z,26.90
2022-08-12T11:12:58.253Z,27.00
2022-08-12T11:15:32.727Z,27.20
2022-08-12T11:18:12.107Z,27.30
2022-08-12T11:20:48.698Z,27.20
2022-08-12T11:23:25.554Z,27.20
2022-08-12T11:26:07.909Z,27.20
2022-08-12T11:28:37.877Z,27.00
2022-08-12T11:31:12.245Z,27.00
2022-08-12T11:34:06.770Z,27.10
2022-08-12T11:36:31.145Z,27.20
2022-08-12T11:39:04.383Z,27.30
2022-08-12T11:41:34.930Z,27.40
2022-08-12T11:44:31.987Z,27.50
2022-08-12T11:46:52.762Z,27.30
2022-08-12T11:49:30.992Z,27.10
2022-08-12T11:52:04.218Z,27.30
2022-08-12T12:18:11.880Z,27.60
2022-08-12T12:26:06.994Z,27.70
2022-08-12T12:30:17.768Z,27.50
2022-08-12T12:32:43.617Z,27.50
2022-08-12T12:36:05.913Z,27.40
2022-08-12T12:38:13.250Z,27.40
2022-08-12T12:40:43.771Z,27.40
2022-08-12T12:43:13.090Z,27.40
2022-08-12T12:45:44.325Z,27.40
2022-08-12T12:48:19.254Z,27.40
2022-08-12T12:51:14.792Z,27.50
2022-08-12T12:54:09.032Z,27.60
2022-08-12T12:56:40.685Z,27.90
2022-08-12T12:59:56.512Z,27.90
2022-08-12T13:01:56.154Z,27.80
2022-08-12T13:04:24.932Z,27.90
2022-08-12T13:06:54.661Z,28.00
2022-08-12T13:09:22.327Z,28.10
2022-08-12T13:11:53.224Z,28.30
2022-08-12T13:14:29.416Z,28.40
2022-08-12T13:17:02.927Z,28.60
2022-08-12T13:19:43.467Z,28.70
2022-08-12T13:22:19.325Z,28.60
2022-08-12T13:24:55.073Z,28.60
2022-08-12T13:27:36.415Z,28.30
2022-08-12T13:30:13.308Z,28.10
2022-08-12T13:32:43.382Z,28.10
2022-08-12T13:35:33.468Z,28.10
2022-08-12T13:38:15.217Z,28.10
2022-08-12T13:40:58.681Z,28.10
2022-08-12T13:43:41.041Z,28.10
2022-08-12T13:46:12.412Z,28.10
2022-08-12T13:48:44.738Z,27.90
2022-08-12T13:51:14.020Z,27.80
2022-08-12T13:53:58.344Z,27.80
2022-08-12T13:56:29.921Z,27.80
2022-08-12T13:59:08.740Z,27.80
2022-08-12T14:01:40.113Z,27.80
2022-08-12T14:04:12.380Z,27.90
2022-08-12T14:06:41.042Z,28.00
2022-08-12T14:09:17.810Z,28.20
2022-08-12T14:11:58.308Z,28.40
2022-08-12T14:14:31.508Z,28.30
2022-08-12T14:17:05.522Z,28.10
2022-08-12T14:19:48.626Z,28.20
2022-08-12T14:22:21.085Z,28.40
2022-08-12T14:24:54.012Z,28.50
2022-08-12T14:28:02.450Z,28.30
2022-08-12T14:30:15.477Z,28.20
2022-08-12T14:32:45.312Z,28.40
2022-08-12T14:35:12.681Z,28.60
2022-08-12T14:37:55.868Z,28.60
2022-08-12T14:40:29.214Z,28.80
2022-08-12T14:42:58.633Z,28.70
2022-08-12T14:45:44.488Z,28.60
2022-08-12T14:48:16.237Z,28.50
2022-08-12T14:51:02.736Z,28.40
2022-08-12T14:59:57.131Z,28.10
2022-08-12T15:02:21.284Z,28.00
2022-08-12T15:04:56.299Z,28.00
2022-08-12T15:07:33.358Z,28.10
2022-08-12T15:10:13.699Z,28.00
2022-08-12T15:12:41.501Z,28.00
2022-08-12T15:15:10.492Z,28.00
2022-08-12T15:17:40.402Z,28.00
2022-08-12T15:20:27.930Z,28.10
2022-08-12T15:22:57.897Z,28.00
2022-08-12T15:25:27.133Z,28.00
2022-08-12T15:28:05.424Z,28.00
2022-08-12T15:30:39.611Z,28.00
2022-08-12T15:33:15.145Z,27.90
2022-08-12T15:35:50.452Z,27.90
2022-08-12T15:38:24.767Z,27.80
2022-08-12T15:40:54.260Z,27.70
2022-08-12T15:43:35.548Z,27.70
2022-08-12T15:46:15.555Z,27.80
2022-08-12T15:48:47.493Z,27.80
2022-08-12T15:51:58.567Z,27.60
2022-08-12T15:54:30.872Z,27.50
2022-08-12T15:57:03.377Z,27.50
2022-08-12T15:59:51.212Z,27.50
2022-08-12T16:02:18.883Z,27.50
2022-08-12T16:04:50.675Z,27.50
2022-08-12T16:07:29.891Z,27.40
2022-08-12T16:10:07.083Z,27.50
2022-08-12T16:12:54.708Z,27.50
2022-08-12T16:15:26.423Z,27.40
2022-08-12T16:18:18.368Z,27.30
2022-08-12T16:20:46.803Z,27.30
2022-08-12T16:23:26.957Z,27.30
2022-08-12T16:26:14.550Z,27.30
2022-08-12T16:28:47.638Z,27.30
2022-08-12T16:31:22.997Z,27.30
2022-08-12T16:33:58.884Z,27.40
2022-08-12T16:36:27.830Z,27.40
2022-08-12T16:38:55.157Z,27.30
2022-08-12T16:41:23.389Z,27.50
2022-08-12T16:43:53.205Z,27.60
2022-08-12T16:46:31.508Z,27.60
2022-08-12T16:49:04.292Z,27.60
2022-08-12T16:51:37.575Z,27.70
2022-08-12T16:54:14.286Z,27.60
2022-08-12T16:56:54.840Z,27.60
2022-08-12T16:59:31.066Z,27.50
2022-08-12T17:02:31.765Z,27.50
2022-08-12T17:05:04.310Z,27.40
2022-08-12T17:07:43.032Z,27.40
2022-08-12T17:10:18.606Z,27.40
2022-08-12T17:13:09.832Z,27.40
2022-08-12T17:15:57.590Z,27.30
2022-08-12T17:18:43.713Z,27.20
2022-08-12T17:21:20.193Z,27.20
2022-08-12T17:24:15.315Z,27.10
2022-08-12T17:26:49.479Z,27.10
2022-08-12T17:29:31.952Z,27.00
2022-08-12T17:32:10.346Z,27.00
2022-08-12T17:35:16.474Z,27.00
2022-08-12T17:37:45.284Z,26.90
2022-08-12T17:40:20.836Z,26.80
2022-08-12T17:43:02.342Z,26.70
2022-08-12T17:45:30.997Z,26.60
2022-08-12T17:48:05.672Z,26.50
2022-08-12T17:50:42.844Z,26.50
2022-08-12T17:53:10.702Z,26.40
2022-08-12T17:55:47.442Z,26.30
2022-08-12T17:58:17.932Z,26.30
2022-08-12T18:00:45.910Z,26.20
2022-08-12T18:03:57.527Z,26.10
2022-08-12T18:06:13.645Z,26.00
2022-08-12T18:08:43.563Z,25.90
2022-08-12T18:12:05.951Z,25.80
2022-08-12T18:14:30.283Z,25.80
2022-08-12T18:17:02.573Z,25.70
2022-08-12T18:20:04.285Z,25.60
2022-08-12T18:22:22.232Z,25.50
2022-08-12T18:25:03.807Z,25.40
2022-08-12T18:27:44.181Z,25.40
2022-08-12T18:30:16.320Z,25.40
2022-08-12T18:32:58.410Z,25.30
2022-08-12T18:35:47.201Z,25.30
2022-08-12T18:38:19.935Z,25.30
2022-08-12T18:41:10.053Z,25.20
2022-08-12T18:43:59.151Z,25.20
2022-08-12T18:46:37.475Z,25.10
2022-08-12T18:49:17.242Z,25.10
2022-08-12T18:52:02.537Z,25.10
2022-08-12T18:54:35.344Z,25.00
2022-08-12T18:57:15.511Z,25.00
2022-08-12T19:00:01.390Z,25.00
2022-08-12T19:02:36.126Z,24.90
2022-08-12T19:05:10.046Z,24.80
2022-08-12T19:07:49.337Z,24.80
2022-08-12T19:10:25.685Z,24.70
2022-08-12T19:13:16.988Z,24.70
2022-08-12T19:15:48.382Z,24.60
2022-08-12T19:18:17.396Z,24.60
2022-08-12T19:20:50.942Z,24.60
2022-08-12T19:23:21.319Z,24.50
2022-08-12T19:26:00.672Z,24.50
2022-08-12T19:28:35.353Z,24.40
2022-08-12T19:31:56.356Z,24.30
2022-08-12T19:38:04.366Z,24.10
2022-08-12T19:40:31.931Z,24.10
2022-08-12T19:43:19.736Z,24.10
2022-08-12T19:45:51.895Z,24.00
2022-08-12T19:48:24.252Z,24.00
2022-08-12T19:50:56.934Z,24.10
2022-08-12T19:53:27.618Z,24.10
2022-08-12T19:55:57.193Z,23.90
2022-08-12T19:58:26.984Z,23.80
2022-08-12T20:00:55.757Z,23.80
2022-08-12T20:03:40.055Z,23.90
2022-08-12T20:06:21.847Z,23.90
2022-08-12T20:08:56.525Z,23.80
2022-08-12T20:12:11.209Z,23.80
2022-08-12T20:14:19.652Z,23.70
2022-08-12T20:16:51.999Z,23.60
2022-08-12T20:19:23.734Z,23.50
2022-08-12T20:21:51.262Z,23.70
2022-08-12T20:24:22.197Z,23.70
2022-08-12T20:26:58.820Z,23.60
2022-08-12T20:29:26.669Z,23.60
2022-08-12T20:32:09.377Z,23.50
2022-08-12T20:34:38.801Z,23.50
2022-08-12T20:37:07.375Z,23.60
2022-08-12T20:39:53.773Z,23.60
2022-08-12T20:42:25.873Z,23.70
2022-08-12T20:44:59.749Z,23.70
2022-08-12T20:47:27.029Z,23.70
2022-08-12T20:50:14.567Z,23.60
2022-08-12T20:52:45.393Z,23.60
2022-08-12T20:55:15.873Z,23.60
2022-08-12T20:58:01.842Z,23.50
2022-08-12T21:00:33.023Z,23.40
2022-08-12T21:03:20.435Z,23.40
2022-08-12T21:06:12.581Z,23.40
2022-08-12T21:08:43.055Z,23.30
2022-08-12T21:11:10.703Z,23.30
2022-08-12T21:13:42.280Z,23.30
2022-08-12T21:16:10.377Z,23.30
2022-08-12T21:18:38.462Z,23.30
2022-08-12T21:21:23.941Z,23.30
2022-08-12T21:23:56.590Z,23.20
2022-08-12T21:26:28.094Z,23.30
2022-08-12T21:29:01.199Z,23.30
2022-08-12T21:32:36.494Z,23.30
2022-08-12T21:34:19.727Z,23.30
2022-08-12T21:36:49.708Z,23.40
2022-08-12T21:39:21.831Z,23.30
2022-08-12T21:41:52.762Z,23.30
2022-08-12T21:45:44.467Z,23.30
2022-08-12T21:47:20.852Z,23.30
2022-08-12T21:50:06.420Z,23.30
2022-08-12T21:52:41.022Z,23.30
2022-08-12T21:55:17.778Z,23.30
2022-08-12T21:57:51.626Z,23.30
2022-08-12T22:00:33.435Z,23.30
2022-08-12T22:04:04.217Z,23.30
2022-08-12T22:06:26.109Z,23.30
2022-08-12T22:09:04.085Z,23.30
2022-08-12T22:11:41.565Z,23.30
2022-08-12T22:14:17.951Z,23.20
2022-08-12T22:16:52.596Z,23.20
2022-08-12T22:19:21.102Z,23.20
2022-08-12T22:21:53.397Z,23.20
2022-08-12T22:24:26.446Z,23.20
2022-08-12T22:27:18.070Z,23.20
2022-08-12T22:30:16.739Z,23.10
2022-08-12T22:32:54.906Z,23.10
2022-08-12T22:35:55.935Z,23.10
2022-08-12T22:38:25.496Z,23.10
2022-08-12T22:40:57.686Z,23.10
2022-08-12T22:43:59.826Z,23.00
2022-08-12T22:46:37.604Z,23.00
2022-08-12T22:49:06.684Z,23.10
2022-08-12T22:52:00.085Z,23.00
2022-08-12T22:54:36.255Z,23.00
2022-08-12T22:57:11.760Z,23.00
2022-08-12T22:59:55.594Z,23.00
2022-08-12T23:02:31.014Z,22.90
2022-08-12T23:04:59.359Z,22.90
2022-08-12T23:07:36.207Z,22.90
2022-08-12T23:10:15.671Z,23.00
2022-08-12T23:13:05.285Z,22.90
2022-08-12T23:15:32.988Z,22.90
2022-08-12T23:18:00.406Z,22.90
2022-08-12T23:20:27.823Z,22.90
2022-08-12T23:23:08.672Z,22.90
2022-08-12T23:25:54.396Z,22.90
2022-08-12T23:28:42.345Z,22.90
2022-08-12T23:31:10.410Z,23.00
2022-08-12T23:34:01.575Z,23.00
2022-08-12T23:36:39.052Z,23.00
2022-08-12T23:40:06.676Z,23.00
2022-08-12T23:42:16.812Z,22.90
2022-08-12T23:44:44.674Z,22.90
2022-08-12T23:47:13.175Z,22.90
2022-08-12T23:49:57.053Z,22.80
2022-08-12T23:52:34.223Z,22.80
2022-08-12T23:55:24.097Z,22.70
2022-08-12T23:58:21.310Z,22.60
